sensor_id;sensor_type;location;lat;lon;timestamp;P1;durP1;ratioP1;P2;durP2;ratioP2
2488;SDS011;1255;48.716;9.124;2022-10-22T00:01:21;1.10;;;0.82;;
2488;SDS011;1255;48.716;9.124;2022-10-22T00:03:48;1.33;;;1.07;;
2488;SDS011;1255;48.716;9.124;2022-10-22T00:06:15;1.30;;;0.90;;
2488;SDS011;1255;48.716;9.124;2022-10-22T00:08:42;1.10;;;1.00;;
2488;SDS011;1255;48.716;9.124;2022-10-22T00:11:09;1.00;;;0.80;;
2488;SDS011;1255;48.716;9.124;2022-10-22T00:13:37;1.80;;;0.88;;
2488;SDS011;1255;48.716;9.124;2022-10-22T00:16:06;1.55;;;0.98;;
2488;SDS011;1255;48.716;9.124;2022-10-22T00:18:33;1.05;;;0.93;;
2488;SDS011;1255;48.716;9.124;2022-10-22T00:20:59;1.15;;;0.82;;
2488;SDS011;1255;48.716;9.124;2022-10-22T00:23:26;1.45;;;0.90;;
2488;SDS011;1255;48.716;9.124;2022-10-22T00:25:53;1.00;;;0.90;;
2488;SDS011;1255;48.716;9.124;2022-10-22T00:28:20;0.90;;;0.80;;
2488;SDS011;1255;48.716;9.124;2022-10-22T00:30:47;0.80;;;0.80;;
2488;SDS011;1255;48.716;9.124;2022-10-22T00:33:15;1.50;;;0.77;;
2488;SDS011;1255;48.716;9.124;2022-10-22T00:35:42;1.02;;;0.93;;
2488;SDS011;1255;48.716;9.124;2022-10-22T00:38:09;1.13;;;1.02;;
2488;SDS011;1255;48.716;9.124;2022-10-22T00:40:36;0.90;;;0.80;;
2488;SDS011;1255;48.716;9.124;2022-10-22T00:43:03;1.55;;;0.85;;
2488;SDS011;1255;48.716;9.124;2022-10-22T00:45:30;0.90;;;0.70;;
2488;SDS011;1255;48.716;9.124;2022-10-22T00:47:58;1.38;;;0.73;;
2488;SDS011;1255;48.716;9.124;2022-10-22T00:50:30;1.10;;;0.70;;
2488;SDS011;1255;48.716;9.124;2022-10-22T00:52:59;1.92;;;0.90;;
2488;SDS011;1255;48.716;9.124;2022-10-22T00:55:27;0.82;;;0.73;;
2488;SDS011;1255;48.716;9.124;2022-10-22T00:57:56;1.05;;;0.82;;
2488;SDS011;1255;48.716;9.124;2022-10-22T01:00:23;1.75;;;0.90;;
2488;SDS011;1255;48.716;9.124;2022-10-22T01:02:50;1.17;;;0.90;;
2488;SDS011;1255;48.716;9.124;2022-10-22T01:05:18;1.55;;;1.00;;
2488;SDS011;1255;48.716;9.124;2022-10-22T01:07:47;0.90;;;0.80;;
2488;SDS011;1255;48.716;9.124;2022-10-22T01:10:23;1.52;;;0.85;;
2488;SDS011;1255;48.716;9.124;2022-10-22T01:13:01;0.90;;;0.80;;
2488;SDS011;1255;48.716;9.124;2022-10-22T01:15:39;1.08;;;0.95;;
2488;SDS011;1255;48.716;9.124;2022-10-22T01:18:12;0.80;;;0.80;;
2488;SDS011;1255;48.716;9.124;2022-10-22T01:20:51;2.08;;;0.95;;
2488;SDS011;1255;48.716;9.124;2022-10-22T01:23:31;1.92;;;1.15;;
2488;SDS011;1255;48.716;9.124;2022-10-22T01:26:23;1.10;;;0.88;;
2488;SDS011;1255;48.716;9.124;2022-10-22T01:28:59;1.00;;;0.90;;
2488;SDS011;1255;48.716;9.124;2022-10-22T01:31:30;1.00;;;0.90;;
2488;SDS011;1255;48.716;9.124;2022-10-22T01:34:01;1.00;;;0.90;;
2488;SDS011;1255;48.716;9.124;2022-10-22T01:36:29;1.25;;;0.80;;
2488;SDS011;1255;48.716;9.124;2022-10-22T01:38:59;2.45;;;1.80;;
2488;SDS011;1255;48.716;9.124;2022-10-22T01:41:27;1.02;;;0.90;;
2488;SDS011;1255;48.716;9.124;2022-10-22T01:43:54;1.02;;;0.93;;
2488;SDS011;1255;48.716;9.124;2022-10-22T01:46:23;1.70;;;0.93;;
2488;SDS011;1255;48.716;9.124;2022-10-22T01:48:55;1.00;;;0.82;;
2488;SDS011;1255;48.716;9.124;2022-10-22T01:51:33;1.02;;;0.77;;
2488;SDS011;1255;48.716;9.124;2022-10-22T01:54:15;0.95;;;0.85;;
2488;SDS011;1255;48.716;9.124;2022-10-22T01:56:53;1.77;;;0.80;;
2488;SDS011;1255;48.716;9.124;2022-10-22T01:59:31;1.45;;;0.80;;
2488;SDS011;1255;48.716;9.124;2022-10-22T02:02:05;0.80;;;0.70;;
2488;SDS011;1255;48.716;9.124;2022-10-22T02:04:40;1.03;;;0.93;;
2488;SDS011;1255;48.716;9.124;2022-10-22T02:07:13;1.02;;;0.90;;
2488;SDS011;1255;48.716;9.124;2022-10-22T02:09:43;0.90;;;0.73;;
2488;SDS011;1255;48.716;9.124;2022-10-22T02:12:10;1.02;;;0.90;;
2488;SDS011;1255;48.716;9.124;2022-10-22T02:14:40;2.10;;;1.10;;
2488;SDS011;1255;48.716;9.124;2022-10-22T02:17:12;2.17;;;1.08;;
2488;SDS011;1255;48.716;9.124;2022-10-22T02:19:45;0.80;;;0.70;;
2488;SDS011;1255;48.716;9.124;2022-10-22T02:22:15;1.15;;;0.70;;
2488;SDS011;1255;48.716;9.124;2022-10-22T02:24:43;1.05;;;0.90;;
2488;SDS011;1255;48.716;9.124;2022-10-22T02:27:11;0.80;;;0.80;;
2488;SDS011;1255;48.716;9.124;2022-10-22T02:29:46;0.90;;;0.80;;
2488;SDS011;1255;48.716;9.124;2022-10-22T02:32:19;1.13;;;1.00;;
2488;SDS011;1255;48.716;9.124;2022-10-22T02:34:48;0.90;;;0.80;;
2488;SDS011;1255;48.716;9.124;2022-10-22T02:37:16;3.77;;;0.97;;
2488;SDS011;1255;48.716;9.124;2022-10-22T02:39:44;1.00;;;0.80;;
2488;SDS011;1255;48.716;9.124;2022-10-22T02:42:11;1.33;;;0.80;;
2488;SDS011;1255;48.716;9.124;2022-10-22T02:44:38;1.45;;;0.90;;
2488;SDS011;1255;48.716;9.124;2022-10-22T02:47:05;0.90;;;0.80;;
2488;SDS011;1255;48.716;9.124;2022-10-22T02:49:33;1.00;;;0.80;;
2488;SDS011;1255;48.716;9.124;2022-10-22T02:52:00;1.10;;;1.00;;
2488;SDS011;1255;48.716;9.124;2022-10-22T02:54:27;1.00;;;0.90;;
2488;SDS011;1255;48.716;9.124;2022-10-22T02:56:54;0.90;;;0.80;;
2488;SDS011;1255;48.716;9.124;2022-10-22T02:59:20;1.85;;;0.90;;
2488;SDS011;1255;48.716;9.124;2022-10-22T03:01:47;1.08;;;0.80;;
2488;SDS011;1255;48.716;9.124;2022-10-22T03:04:14;1.20;;;0.80;;
2488;SDS011;1255;48.716;9.124;2022-10-22T03:06:42;1.00;;;0.90;;
2488;SDS011;1255;48.716;9.124;2022-10-22T03:09:09;0.90;;;0.80;;
2488;SDS011;1255;48.716;9.124;2022-10-22T03:11:36;1.63;;;1.00;;
2488;SDS011;1255;48.716;9.124;2022-10-22T03:14:03;1.65;;;0.82;;
2488;SDS011;1255;48.716;9.124;2022-10-22T03:16:29;1.20;;;0.90;;
2488;SDS011;1255;48.716;9.124;2022-10-22T03:18:56;0.90;;;0.80;;
2488;SDS011;1255;48.716;9.124;2022-10-22T03:21:25;3.78;;;1.13;;
2488;SDS011;1255;48.716;9.124;2022-10-22T03:23:57;1.03;;;0.93;;
2488;SDS011;1255;48.716;9.124;2022-10-22T03:26:26;1.50;;;1.05;;
2488;SDS011;1255;48.716;9.124;2022-10-22T03:28:53;1.00;;;0.90;;
2488;SDS011;1255;48.716;9.124;2022-10-22T03:31:20;1.48;;;1.00;;
2488;SDS011;1255;48.716;9.124;2022-10-22T03:33:46;1.02;;;0.90;;
2488;SDS011;1255;48.716;9.124;2022-10-22T03:36:13;1.10;;;0.80;;
2488;SDS011;1255;48.716;9.124;2022-10-22T03:38:40;1.30;;;1.00;;
2488;SDS011;1255;48.716;9.124;2022-10-22T03:41:08;1.00;;;0.70;;
2488;SDS011;1255;48.716;9.124;2022-10-22T03:43:35;1.00;;;0.90;;
2488;SDS011;1255;48.716;9.124;2022-10-22T03:46:04;1.00;;;0.80;;
2488;SDS011;1255;48.716;9.124;2022-10-22T03:48:31;0.98;;;0.88;;
2488;SDS011;1255;48.716;9.124;2022-10-22T03:50:58;1.10;;;1.00;;
2488;SDS011;1255;48.716;9.124;2022-10-22T03:53:25;1.20;;;1.10;;
2488;SDS011;1255;48.716;9.124;2022-10-22T03:55:51;1.00;;;0.90;;
2488;SDS011;1255;48.716;9.124;2022-10-22T03:58:20;1.15;;;0.90;;
2488;SDS011;1255;48.716;9.124;2022-10-22T04:00:46;5.32;;;1.20;;
2488;SDS011;1255;48.716;9.124;2022-10-22T04:03:13;1.00;;;0.90;;
2488;SDS011;1255;48.716;9.124;2022-10-22T04:05:40;1.77;;;0.80;;
2488;SDS011;1255;48.716;9.124;2022-10-22T04:08:06;1.92;;;1.00;;
2488;SDS011;1255;48.716;9.124;2022-10-22T04:10:33;0.80;;;0.70;;
2488;SDS011;1255;48.716;9.124;2022-10-22T04:13:00;1.38;;;0.90;;
2488;SDS011;1255;48.716;9.124;2022-10-22T04:15:28;1.27;;;0.90;;
2488;SDS011;1255;48.716;9.124;2022-10-22T04:17:56;1.50;;;0.90;;
2488;SDS011;1255;48.716;9.124;2022-10-22T04:20:23;2.13;;;1.05;;
2488;SDS011;1255;48.716;9.124;2022-10-22T04:22:49;0.90;;;0.70;;
2488;SDS011;1255;48.716;9.124;2022-10-22T04:25:16;1.75;;;1.00;;
2488;SDS011;1255;48.716;9.124;2022-10-22T04:27:43;0.80;;;0.70;;
2488;SDS011;1255;48.716;9.124;2022-10-22T04:30:10;0.90;;;0.80;;
2488;SDS011;1255;48.716;9.124;2022-10-22T04:32:39;1.10;;;0.80;;
2488;SDS011;1255;48.716;9.124;2022-10-22T04:35:06;1.02;;;0.90;;
2488;SDS011;1255;48.716;9.124;2022-10-22T04:37:33;3.50;;;2.25;;
2488;SDS011;1255;48.716;9.124;2022-10-22T04:40:00;1.10;;;0.80;;
2488;SDS011;1255;48.716;9.124;2022-10-22T04:42:27;0.85;;;0.70;;
2488;SDS011;1255;48.716;9.124;2022-10-22T04:44:53;0.95;;;0.80;;
2488;SDS011;1255;48.716;9.124;2022-10-22T04:47:20;0.80;;;0.80;;
2488;SDS011;1255;48.716;9.124;2022-10-22T04:49:48;2.08;;;0.80;;
2488;SDS011;1255;48.716;9.124;2022-10-22T04:52:15;1.00;;;0.90;;
2488;SDS011;1255;48.716;9.124;2022-10-22T04:57:09;1.05;;;0.90;;
2488;SDS011;1255;48.716;9.124;2022-10-22T04:59:36;2.45;;;0.90;;
2488;SDS011;1255;48.716;9.124;2022-10-22T05:02:03;1.50;;;0.75;;
2488;SDS011;1255;48.716;9.124;2022-10-22T05:04:30;4.20;;;0.80;;
2488;SDS011;1255;48.716;9.124;2022-10-22T05:06:58;1.45;;;1.08;;
2488;SDS011;1255;48.716;9.124;2022-10-22T05:09:25;3.63;;;1.00;;
2488;SDS011;1255;48.716;9.124;2022-10-22T05:11:52;1.10;;;1.00;;
2488;SDS011;1255;48.716;9.124;2022-10-22T05:14:19;1.00;;;0.80;;
2488;SDS011;1255;48.716;9.124;2022-10-22T05:16:48;1.08;;;0.88;;
2488;SDS011;1255;48.716;9.124;2022-10-22T05:19:17;0.88;;;0.80;;
2488;SDS011;1255;48.716;9.124;2022-10-22T05:21:45;1.20;;;1.10;;
2488;SDS011;1255;48.716;9.124;2022-10-22T05:24:13;2.47;;;0.90;;
2488;SDS011;1255;48.716;9.124;2022-10-22T05:26:40;1.10;;;1.00;;
2488;SDS011;1255;48.716;9.124;2022-10-22T05:29:07;1.55;;;0.95;;
2488;SDS011;1255;48.716;9.124;2022-10-22T05:31:34;2.10;;;1.00;;
2488;SDS011;1255;48.716;9.124;2022-10-22T05:34:00;0.98;;;0.80;;
2488;SDS011;1255;48.716;9.124;2022-10-22T05:36:27;1.25;;;0.93;;
2488;SDS011;1255;48.716;9.124;2022-10-22T05:38:54;1.02;;;0.80;;
2488;SDS011;1255;48.716;9.124;2022-10-22T05:41:25;1.10;;;0.93;;
2488;SDS011;1255;48.716;9.124;2022-10-22T05:43:53;1.10;;;1.00;;
2488;SDS011;1255;48.716;9.124;2022-10-22T05:46:20;0.80;;;0.80;;
2488;SDS011;1255;48.716;9.124;2022-10-22T05:48:48;1.02;;;0.80;;
2488;SDS011;1255;48.716;9.124;2022-10-22T05:51:16;1.52;;;0.90;;
2488;SDS011;1255;48.716;9.124;2022-10-22T05:53:42;1.00;;;0.90;;
2488;SDS011;1255;48.716;9.124;2022-10-22T05:56:10;1.02;;;0.85;;
2488;SDS011;1255;48.716;9.124;2022-10-22T05:58:40;1.08;;;0.98;;
2488;SDS011;1255;48.716;9.124;2022-10-22T06:01:10;1.65;;;0.80;;
2488;SDS011;1255;48.716;9.124;2022-10-22T06:03:38;1.08;;;0.80;;
2488;SDS011;1255;48.716;9.124;2022-10-22T06:06:06;0.80;;;0.73;;
2488;SDS011;1255;48.716;9.124;2022-10-22T06:08:42;0.93;;;0.75;;
2488;SDS011;1255;48.716;9.124;2022-10-22T06:11:09;1.55;;;0.90;;
2488;SDS011;1255;48.716;9.124;2022-10-22T06:13:36;1.08;;;0.80;;
2488;SDS011;1255;48.716;9.124;2022-10-22T06:16:04;0.90;;;0.70;;
2488;SDS011;1255;48.716;9.124;2022-10-22T06:18:31;1.10;;;0.98;;
2488;SDS011;1255;48.716;9.124;2022-10-22T06:21:02;0.85;;;0.80;;
2488;SDS011;1255;48.716;9.124;2022-10-22T06:23:30;0.80;;;0.70;;
2488;SDS011;1255;48.716;9.124;2022-10-22T06:25:57;3.80;;;0.80;;
2488;SDS011;1255;48.716;9.124;2022-10-22T06:28:24;0.95;;;0.85;;
2488;SDS011;1255;48.716;9.124;2022-10-22T06:30:51;1.45;;;0.88;;
2488;SDS011;1255;48.716;9.124;2022-10-22T06:33:19;1.15;;;0.85;;
2488;SDS011;1255;48.716;9.124;2022-10-22T06:35:46;1.15;;;0.80;;
2488;SDS011;1255;48.716;9.124;2022-10-22T06:38:13;2.05;;;0.90;;
2488;SDS011;1255;48.716;9.124;2022-10-22T06:40:40;1.10;;;0.80;;
2488;SDS011;1255;48.716;9.124;2022-10-22T06:43:07;0.88;;;0.80;;
2488;SDS011;1255;48.716;9.124;2022-10-22T06:45:34;0.90;;;0.80;;
2488;SDS011;1255;48.716;9.124;2022-10-22T06:48:01;0.90;;;0.73;;
2488;SDS011;1255;48.716;9.124;2022-10-22T06:50:29;1.73;;;1.00;;
2488;SDS011;1255;48.716;9.124;2022-10-22T06:52:56;1.15;;;0.77;;
2488;SDS011;1255;48.716;9.124;2022-10-22T06:55:23;0.90;;;0.70;;
2488;SDS011;1255;48.716;9.124;2022-10-22T06:57:49;0.98;;;0.70;;
2488;SDS011;1255;48.716;9.124;2022-10-22T07:00:16;0.90;;;0.80;;
2488;SDS011;1255;48.716;9.124;2022-10-22T07:02:43;1.00;;;0.80;;
2488;SDS011;1255;48.716;9.124;2022-10-22T07:05:16;1.52;;;1.42;;
2488;SDS011;1255;48.716;9.124;2022-10-22T07:07:45;1.65;;;0.98;;
2488;SDS011;1255;48.716;9.124;2022-10-22T07:10:11;1.98;;;1.15;;
2488;SDS011;1255;48.716;9.124;2022-10-22T07:12:50;1.13;;;1.02;;
2488;SDS011;1255;48.716;9.124;2022-10-22T07:18:26;0.80;;;0.80;;
2488;SDS011;1255;48.716;9.124;2022-10-22T07:21:31;0.95;;;0.85;;
2488;SDS011;1255;48.716;9.124;2022-10-22T07:24:04;1.10;;;0.80;;
2488;SDS011;1255;48.716;9.124;2022-10-22T07:26:45;1.38;;;1.00;;
2488;SDS011;1255;48.716;9.124;2022-10-22T07:29:13;1.20;;;1.00;;
2488;SDS011;1255;48.716;9.124;2022-10-22T07:31:55;1.00;;;0.90;;
2488;SDS011;1255;48.716;9.124;2022-10-22T07:34:35;1.00;;;0.90;;
2488;SDS011;1255;48.716;9.124;2022-10-22T07:37:04;1.00;;;0.90;;
2488;SDS011;1255;48.716;9.124;2022-10-22T07:40:01;1.23;;;0.95;;
2488;SDS011;1255;48.716;9.124;2022-10-22T07:42:28;1.33;;;1.02;;
2488;SDS011;1255;48.716;9.124;2022-10-22T07:44:55;1.15;;;1.02;;
2488;SDS011;1255;48.716;9.124;2022-10-22T07:47:22;1.33;;;1.00;;
2488;SDS011;1255;48.716;9.124;2022-10-22T07:49:48;1.53;;;1.07;;
2488;SDS011;1255;48.716;9.124;2022-10-22T07:52:15;1.40;;;0.93;;
2488;SDS011;1255;48.716;9.124;2022-10-22T07:54:42;1.55;;;1.35;;
2488;SDS011;1255;48.716;9.124;2022-10-22T07:57:10;1.50;;;1.08;;
2488;SDS011;1255;48.716;9.124;2022-10-22T07:59:37;1.00;;;0.90;;
2488;SDS011;1255;48.716;9.124;2022-10-22T08:02:04;3.08;;;1.08;;
2488;SDS011;1255;48.716;9.124;2022-10-22T08:04:30;3.35;;;1.20;;
2488;SDS011;1255;48.716;9.124;2022-10-22T08:06:57;1.08;;;0.90;;
2488;SDS011;1255;48.716;9.124;2022-10-22T08:09:24;1.00;;;0.90;;
2488;SDS011;1255;48.716;9.124;2022-10-22T08:11:50;1.23;;;1.13;;
2488;SDS011;1255;48.716;9.124;2022-10-22T08:14:19;1.27;;;1.10;;
2488;SDS011;1255;48.716;9.124;2022-10-22T08:16:46;1.50;;;1.10;;
2488;SDS011;1255;48.716;9.124;2022-10-22T08:19:13;1.42;;;1.20;;
2488;SDS011;1255;48.716;9.124;2022-10-22T08:21:43;1.10;;;1.00;;
2488;SDS011;1255;48.716;9.124;2022-10-22T08:24:10;1.03;;;0.93;;
2488;SDS011;1255;48.716;9.124;2022-10-22T08:26:37;0.90;;;0.80;;
2488;SDS011;1255;48.716;9.124;2022-10-22T08:29:03;1.03;;;0.90;;
2488;SDS011;1255;48.716;9.124;2022-10-22T08:31:32;1.13;;;0.90;;
2488;SDS011;1255;48.716;9.124;2022-10-22T08:33:58;2.63;;;1.10;;
2488;SDS011;1255;48.716;9.124;2022-10-22T08:36:25;1.43;;;0.90;;
2488;SDS011;1255;48.716;9.124;2022-10-22T08:38:52;1.00;;;0.90;;
2488;SDS011;1255;48.716;9.124;2022-10-22T08:41:19;1.23;;;1.00;;
2488;SDS011;1255;48.716;9.124;2022-10-22T08:43:55;1.80;;;1.50;;
2488;SDS011;1255;48.716;9.124;2022-10-22T08:46:42;1.03;;;0.93;;
2488;SDS011;1255;48.716;9.124;2022-10-22T08:49:20;1.40;;;1.30;;
2488;SDS011;1255;48.716;9.124;2022-10-22T08:51:48;1.10;;;1.00;;
2488;SDS011;1255;48.716;9.124;2022-10-22T08:54:21;1.60;;;1.30;;
2488;SDS011;1255;48.716;9.124;2022-10-22T08:56:57;1.27;;;0.97;;
2488;SDS011;1255;48.716;9.124;2022-10-22T08:59:37;1.40;;;1.23;;
2488;SDS011;1255;48.716;9.124;2022-10-22T09:02:16;1.60;;;1.23;;
2488;SDS011;1255;48.716;9.124;2022-10-22T09:04:54;1.10;;;1.00;;
2488;SDS011;1255;48.716;9.124;2022-10-22T09:07:29;1.30;;;1.10;;
2488;SDS011;1255;48.716;9.124;2022-10-22T09:09:56;1.47;;;1.00;;
2488;SDS011;1255;48.716;9.124;2022-10-22T09:12:28;1.30;;;1.00;;
2488;SDS011;1255;48.716;9.124;2022-10-22T09:14:56;1.10;;;1.00;;
2488;SDS011;1255;48.716;9.124;2022-10-22T09:17:27;1.00;;;0.90;;
2488;SDS011;1255;48.716;9.124;2022-10-22T09:20:04;1.20;;;0.90;;
2488;SDS011;1255;48.716;9.124;2022-10-22T09:22:38;1.20;;;1.10;;
2488;SDS011;1255;48.716;9.124;2022-10-22T09:25:13;1.00;;;0.90;;
2488;SDS011;1255;48.716;9.124;2022-10-22T09:27:45;1.80;;;1.57;;
2488;SDS011;1255;48.716;9.124;2022-10-22T09:30:13;1.00;;;0.83;;
2488;SDS011;1255;48.716;9.124;2022-10-22T09:32:43;1.50;;;0.90;;
2488;SDS011;1255;48.716;9.124;2022-10-22T09:35:11;1.00;;;0.90;;
2488;SDS011;1255;48.716;9.124;2022-10-22T09:37:47;1.10;;;0.90;;
2488;SDS011;1255;48.716;9.124;2022-10-22T09:40:15;1.40;;;1.00;;
2488;SDS011;1255;48.716;9.124;2022-10-22T09:42:44;1.60;;;1.00;;
2488;SDS011;1255;48.716;9.124;2022-10-22T09:45:14;0.90;;;0.77;;
2488;SDS011;1255;48.716;9.124;2022-10-22T09:47:45;1.20;;;1.00;;
2488;SDS011;1255;48.716;9.124;2022-10-22T09:50:25;1.37;;;1.00;;
2488;SDS011;1255;48.716;9.124;2022-10-22T09:52:54;0.93;;;0.83;;
2488;SDS011;1255;48.716;9.124;2022-10-22T09:55:24;1.10;;;0.93;;
2488;SDS011;1255;48.716;9.124;2022-10-22T09:57:52;2.10;;;1.00;;
2488;SDS011;1255;48.716;9.124;2022-10-22T10:00:23;1.23;;;0.90;;
2488;SDS011;1255;48.716;9.124;2022-10-22T10:02:54;2.50;;;1.20;;
2488;SDS011;1255;48.716;9.124;2022-10-22T10:05:24;1.40;;;1.20;;
2488;SDS011;1255;48.716;9.124;2022-10-22T10:07:53;1.00;;;0.90;;
2488;SDS011;1255;48.716;9.124;2022-10-22T10:10:25;1.03;;;0.83;;
2488;SDS011;1255;48.716;9.124;2022-10-22T10:13:00;2.20;;;1.20;;
2488;SDS011;1255;48.716;9.124;2022-10-22T10:15:35;1.47;;;1.00;;
2488;SDS011;1255;48.716;9.124;2022-10-22T10:18:11;1.83;;;1.00;;
2488;SDS011;1255;48.716;9.124;2022-10-22T10:20:48;1.17;;;1.00;;
2488;SDS011;1255;48.716;9.124;2022-10-22T10:23:22;4.13;;;1.30;;
2488;SDS011;1255;48.716;9.124;2022-10-22T10:25:57;1.23;;;1.07;;
2488;SDS011;1255;48.716;9.124;2022-10-22T10:28:33;1.30;;;1.20;;
2488;SDS011;1255;48.716;9.124;2022-10-22T10:31:06;2.63;;;1.23;;
2488;SDS011;1255;48.716;9.124;2022-10-22T10:33:45;2.27;;;1.20;;
2488;SDS011;1255;48.716;9.124;2022-10-22T10:36:21;3.87;;;1.13;;
2488;SDS011;1255;48.716;9.124;2022-10-22T10:38:57;1.87;;;1.17;;
2488;SDS011;1255;48.716;9.124;2022-10-22T10:41:32;1.30;;;1.00;;
2488;SDS011;1255;48.716;9.124;2022-10-22T10:44:31;3.03;;;1.33;;
2488;SDS011;1255;48.716;9.124;2022-10-22T10:47:10;1.30;;;1.00;;
2488;SDS011;1255;48.716;9.124;2022-10-22T10:49:45;1.10;;;0.90;;
2488;SDS011;1255;48.716;9.124;2022-10-22T10:52:15;1.67;;;1.33;;
2488;SDS011;1255;48.716;9.124;2022-10-22T10:54:53;2.83;;;1.17;;
2488;SDS011;1255;48.716;9.124;2022-10-22T10:57:31;2.13;;;1.20;;
2488;SDS011;1255;48.716;9.124;2022-10-22T11:00:05;1.80;;;1.00;;
2488;SDS011;1255;48.716;9.124;2022-10-22T11:02:42;1.10;;;1.00;;
2488;SDS011;1255;48.716;9.124;2022-10-22T11:05:31;1.70;;;1.30;;
2488;SDS011;1255;48.716;9.124;2022-10-22T11:08:04;0.90;;;0.77;;
2488;SDS011;1255;48.716;9.124;2022-10-22T11:10:38;2.30;;;1.27;;
2488;SDS011;1255;48.716;9.124;2022-10-22T11:13:09;1.40;;;1.17;;
2488;SDS011;1255;48.716;9.124;2022-10-22T11:15:40;2.57;;;1.10;;
2488;SDS011;1255;48.716;9.124;2022-10-22T11:18:14;1.40;;;1.13;;
2488;SDS011;1255;48.716;9.124;2022-10-22T11:20:48;2.20;;;1.43;;
2488;SDS011;1255;48.716;9.124;2022-10-22T11:23:21;2.20;;;1.23;;
2488;SDS011;1255;48.716;9.124;2022-10-22T11:25:53;1.60;;;1.30;;
2488;SDS011;1255;48.716;9.124;2022-10-22T11:28:21;1.67;;;1.50;;
2488;SDS011;1255;48.716;9.124;2022-10-22T11:30:55;1.10;;;1.00;;
2488;SDS011;1255;48.716;9.124;2022-10-22T11:33:25;2.00;;;1.10;;
2488;SDS011;1255;48.716;9.124;2022-10-22T11:36:01;1.73;;;0.83;;
2488;SDS011;1255;48.716;9.124;2022-10-22T11:38:30;1.30;;;0.97;;
2488;SDS011;1255;48.716;9.124;2022-10-22T11:41:00;1.03;;;0.93;;
2488;SDS011;1255;48.716;9.124;2022-10-22T11:43:30;1.30;;;1.00;;
2488;SDS011;1255;48.716;9.124;2022-10-22T11:46:01;1.00;;;0.80;;
2488;SDS011;1255;48.716;9.124;2022-10-22T11:48:35;2.90;;;1.10;;
2488;SDS011;1255;48.716;9.124;2022-10-22T11:51:27;1.10;;;1.00;;
2488;SDS011;1255;48.716;9.124;2022-10-22T11:53:57;1.47;;;1.10;;
2488;SDS011;1255;48.716;9.124;2022-10-22T11:56:35;1.67;;;1.20;;
2488;SDS011;1255;48.716;9.124;2022-10-22T11:59:02;1.77;;;1.00;;
2488;SDS011;1255;48.716;9.124;2022-10-22T12:01:54;3.33;;;1.17;;
2488;SDS011;1255;48.716;9.124;2022-10-22T12:04:21;1.03;;;0.83;;
2488;SDS011;1255;48.716;9.124;2022-10-22T12:07:23;1.20;;;1.00;;
2488;SDS011;1255;48.716;9.124;2022-10-22T12:09:59;1.43;;;1.10;;
2488;SDS011;1255;48.716;9.124;2022-10-22T12:12:33;1.07;;;0.90;;
2488;SDS011;1255;48.716;9.124;2022-10-22T12:17:48;1.23;;;1.00;;
2488;SDS011;1255;48.716;9.124;2022-10-22T12:20:15;1.20;;;1.10;;
2488;SDS011;1255;48.716;9.124;2022-10-22T12:22:44;1.10;;;1.00;;
2488;SDS011;1255;48.716;9.124;2022-10-22T12:25:15;1.80;;;1.07;;
2488;SDS011;1255;48.716;9.124;2022-10-22T12:27:48;1.90;;;1.20;;
2488;SDS011;1255;48.716;9.124;2022-10-22T12:30:17;1.37;;;1.03;;
2488;SDS011;1255;48.716;9.124;2022-10-22T12:32:48;1.70;;;0.97;;
2488;SDS011;1255;48.716;9.124;2022-10-22T12:35:18;1.27;;;1.00;;
2488;SDS011;1255;48.716;9.124;2022-10-22T12:37:49;2.30;;;1.00;;
2488;SDS011;1255;48.716;9.124;2022-10-22T12:40:18;1.20;;;0.90;;
2488;SDS011;1255;48.716;9.124;2022-10-22T12:42:48;1.60;;;1.20;;
2488;SDS011;1255;48.716;9.124;2022-10-22T12:45:16;1.10;;;1.00;;
2488;SDS011;1255;48.716;9.124;2022-10-22T12:47:46;1.47;;;0.90;;
2488;SDS011;1255;48.716;9.124;2022-10-22T12:50:17;1.07;;;0.97;;
2488;SDS011;1255;48.716;9.124;2022-10-22T12:52:45;2.60;;;1.10;;
2488;SDS011;1255;48.716;9.124;2022-10-22T12:55:15;1.50;;;0.90;;
2488;SDS011;1255;48.716;9.124;2022-10-22T12:57:44;1.30;;;1.00;;
2488;SDS011;1255;48.716;9.124;2022-10-22T13:00:19;1.50;;;1.40;;
2488;SDS011;1255;48.716;9.124;2022-10-22T13:02:48;1.70;;;1.20;;
2488;SDS011;1255;48.716;9.124;2022-10-22T13:05:19;0.90;;;0.80;;
2488;SDS011;1255;48.716;9.124;2022-10-22T13:07:49;1.20;;;1.00;;
2488;SDS011;1255;48.716;9.124;2022-10-22T13:10:21;1.53;;;0.97;;
2488;SDS011;1255;48.716;9.124;2022-10-22T13:12:53;1.17;;;0.90;;
2488;SDS011;1255;48.716;9.124;2022-10-22T13:15:29;2.20;;;1.43;;
2488;SDS011;1255;48.716;9.124;2022-10-22T13:18:03;1.40;;;1.30;;
2488;SDS011;1255;48.716;9.124;2022-10-22T13:20:32;1.17;;;1.07;;
2488;SDS011;1255;48.716;9.124;2022-10-22T13:23:01;1.50;;;1.00;;
2488;SDS011;1255;48.716;9.124;2022-10-22T13:25:31;1.20;;;1.00;;
2488;SDS011;1255;48.716;9.124;2022-10-22T13:28:00;1.70;;;1.33;;
2488;SDS011;1255;48.716;9.124;2022-10-22T13:30:38;1.60;;;1.20;;
2488;SDS011;1255;48.716;9.124;2022-10-22T13:33:19;1.70;;;1.40;;
2488;SDS011;1255;48.716;9.124;2022-10-22T13:35:49;1.70;;;1.37;;
2488;SDS011;1255;48.716;9.124;2022-10-22T13:38:17;2.37;;;1.43;;
2488;SDS011;1255;48.716;9.124;2022-10-22T13:40:47;2.13;;;1.20;;
2488;SDS011;1255;48.716;9.124;2022-10-22T13:43:14;1.20;;;1.03;;
2488;SDS011;1255;48.716;9.124;2022-10-22T13:45:42;3.90;;;1.60;;
2488;SDS011;1255;48.716;9.124;2022-10-22T13:48:11;1.57;;;1.47;;
2488;SDS011;1255;48.716;9.124;2022-10-22T13:50:40;3.20;;;1.50;;
2488;SDS011;1255;48.716;9.124;2022-10-22T13:53:08;1.30;;;0.90;;
2488;SDS011;1255;48.716;9.124;2022-10-22T13:55:42;3.10;;;1.17;;
2488;SDS011;1255;48.716;9.124;2022-10-22T13:58:11;1.53;;;1.07;;
2488;SDS011;1255;48.716;9.124;2022-10-22T14:00:40;1.87;;;1.00;;
2488;SDS011;1255;48.716;9.124;2022-10-22T14:03:10;2.80;;;1.03;;
2488;SDS011;1255;48.716;9.124;2022-10-22T14:05:42;1.73;;;1.20;;
2488;SDS011;1255;48.716;9.124;2022-10-22T14:08:11;1.10;;;0.90;;
2488;SDS011;1255;48.716;9.124;2022-10-22T14:10:41;0.90;;;0.80;;
2488;SDS011;1255;48.716;9.124;2022-10-22T14:13:08;1.23;;;1.00;;
2488;SDS011;1255;48.716;9.124;2022-10-22T14:15:37;1.83;;;1.27;;
2488;SDS011;1255;48.716;9.124;2022-10-22T14:18:05;1.50;;;1.10;;
2488;SDS011;1255;48.716;9.124;2022-10-22T14:20:34;1.80;;;1.20;;
2488;SDS011;1255;48.716;9.124;2022-10-22T14:23:06;1.13;;;1.00;;
2488;SDS011;1255;48.716;9.124;2022-10-22T14:25:38;2.80;;;1.30;;
2488;SDS011;1255;48.716;9.124;2022-10-22T14:28:06;1.47;;;1.30;;
2488;SDS011;1255;48.716;9.124;2022-10-22T14:30:35;1.70;;;1.00;;
2488;SDS011;1255;48.716;9.124;2022-10-22T14:33:05;2.37;;;1.17;;
2488;SDS011;1255;48.716;9.124;2022-10-22T14:35:38;1.60;;;1.13;;
2488;SDS011;1255;48.716;9.124;2022-10-22T14:38:05;1.20;;;0.80;;
2488;SDS011;1255;48.716;9.124;2022-10-22T14:40:35;2.80;;;1.20;;
2488;SDS011;1255;48.716;9.124;2022-10-22T14:43:03;1.47;;;1.10;;
2488;SDS011;1255;48.716;9.124;2022-10-22T14:45:30;2.70;;;1.30;;
2488;SDS011;1255;48.716;9.124;2022-10-22T14:47:58;1.80;;;1.27;;
2488;SDS011;1255;48.716;9.124;2022-10-22T14:50:26;1.23;;;0.90;;
2488;SDS011;1255;48.716;9.124;2022-10-22T14:52:52;1.50;;;1.00;;
2488;SDS011;1255;48.716;9.124;2022-10-22T14:55:21;2.93;;;1.17;;
2488;SDS011;1255;48.716;9.124;2022-10-22T14:57:50;2.63;;;1.40;;
2488;SDS011;1255;48.716;9.124;2022-10-22T15:00:17;1.97;;;1.13;;
2488;SDS011;1255;48.716;9.124;2022-10-22T15:02:45;1.50;;;1.30;;
2488;SDS011;1255;48.716;9.124;2022-10-22T15:05:14;2.50;;;1.70;;
2488;SDS011;1255;48.716;9.124;2022-10-22T15:07:41;2.37;;;1.40;;
2488;SDS011;1255;48.716;9.124;2022-10-22T15:10:08;1.97;;;1.77;;
2488;SDS011;1255;48.716;9.124;2022-10-22T15:12:35;2.10;;;1.40;;
2488;SDS011;1255;48.716;9.124;2022-10-22T15:15:03;3.57;;;1.40;;
2488;SDS011;1255;48.716;9.124;2022-10-22T15:17:30;3.80;;;2.03;;
2488;SDS011;1255;48.716;9.124;2022-10-22T15:19:57;3.43;;;2.10;;
2488;SDS011;1255;48.716;9.124;2022-10-22T15:22:29;2.93;;;2.13;;
2488;SDS011;1255;48.716;9.124;2022-10-22T15:24:59;2.47;;;2.23;;
2488;SDS011;1255;48.716;9.124;2022-10-22T15:27:26;2.60;;;2.10;;
2488;SDS011;1255;48.716;9.124;2022-10-22T15:29:53;2.43;;;1.87;;
2488;SDS011;1255;48.716;9.124;2022-10-22T15:32:22;3.63;;;2.10;;
2488;SDS011;1255;48.716;9.124;2022-10-22T15:34:50;3.50;;;2.30;;
2488;SDS011;1255;48.716;9.124;2022-10-22T15:37:18;6.73;;;2.40;;
2488;SDS011;1255;48.716;9.124;2022-10-22T15:39:46;6.77;;;2.40;;
2488;SDS011;1255;48.716;9.124;2022-10-22T15:42:13;5.40;;;2.07;;